Time;durP1;ratioP1;P1;durP2;ratioP2;P2;SDS_P1;SDS_P2;PMS_P1;PMS_P2;Temp;Humidity;BMP_temperature;BMP_pressure;BME280_temperature;BME280_humidity;BME280_pressure;Samples;Min_cycle;Max_cycle;Signal;HPM_P1;HPM_P2
2022/08/07 00:00:21;;;;;;;3.40;3.10;;;24.80;62.40;;;;;;5015441;28;20424;-66
2022/08/07 00:02:47;;;;;;;3.90;3.50;;;24.80;62.40;;;;;;5015261;28;20396;-66
2022/08/07 00:05:12;;;;;;;3.50;3.20;;;24.80;62.40;;;;;;5015300;28;20734;-66
2022/08/07 00:07:38;;;;;;;3.72;3.13;;;24.80;62.40;;;;;;4997250;28;20400;-66
2022/08/07 00:10:05;;;;;;;3.70;3.17;;;24.80;62.40;;;;;;5015124;28;20420;-66
2022/08/07 00:12:30;;;;;;;3.85;3.20;;;24.80;62.40;;;;;;4997449;28;20479;-66
2022/08/07 00:14:57;;;;;;;3.58;3.20;;;24.80;62.40;;;;;;5015018;28;20507;-67
2022/08/07 00:17:22;;;;;;;3.63;3.13;;;24.80;62.40;;;;;;5015142;28;20396;-66
2022/08/07 00:19:48;;;;;;;3.67;3.20;;;24.80;62.40;;;;;;5014586;28;20405;-66
2022/08/07 00:22:14;;;;;;;3.88;2.95;;;24.80;62.40;;;;;;5014961;28;20893;-66
2022/08/07 00:24:40;;;;;;;3.33;3.03;;;24.80;62.40;;;;;;5015034;28;20393;-66
2022/08/07 00:27:05;;;;;;;3.78;3.17;;;24.80;62.40;;;;;;5015021;28;20395;-66
2022/08/07 00:29:31;;;;;;;3.63;3.00;;;24.80;62.40;;;;;;5014493;28;20476;-67
2022/08/07 00:31:58;;;;;;;3.38;3.00;;;24.80;62.40;;;;;;5014853;28;20420;-67
2022/08/07 00:34:25;;;;;;;3.40;3.10;;;24.80;62.40;;;;;;5014705;28;20976;-66
2022/08/07 00:36:51;;;;;;;3.67;2.88;;;24.80;62.40;;;;;;5014651;28;20413;-67
2022/08/07 00:39:18;;;;;;;3.63;3.22;;;24.80;62.40;;;;;;5014757;28;20397;-66
2022/08/07 00:41:55;;;;;;;3.40;3.10;;;24.80;62.40;;;;;;4996639;28;20397;-66
2022/08/07 00:44:20;;;;;;;3.40;3.10;;;24.70;62.30;;;;;;5014669;28;20592;-66
2022/08/07 00:46:46;;;;;;;3.80;3.00;;;24.70;62.30;;;;;;5014582;28;20820;-66
2022/08/07 00:49:12;;;;;;;3.60;3.22;;;24.70;62.30;;;;;;5014571;28;20802;-66
2022/08/07 00:51:38;;;;;;;3.20;2.90;;;24.70;62.30;;;;;;5014069;28;20792;-66
2022/08/07 00:54:03;;;;;;;3.10;2.80;;;24.70;62.30;;;;;;5014286;28;20412;-67
2022/08/07 00:56:29;;;;;;;3.63;3.23;;;24.70;62.30;;;;;;5013050;28;20381;-67
2022/08/07 00:58:55;;;;;;;3.45;3.15;;;24.70;62.30;;;;;;5014332;28;20408;-66
2022/08/07 01:01:21;;;;;;;3.35;3.05;;;24.70;62.30;;;;;;5013550;28;20388;-67
2022/08/07 01:03:48;;;;;;;3.40;3.03;;;24.70;62.30;;;;;;5013520;28;20392;-66
2022/08/07 01:06:15;;;;;;;3.38;3.08;;;24.70;62.30;;;;;;5014242;28;20389;-66
2022/08/07 01:08:41;;;;;;;3.50;3.20;;;24.70;62.30;;;;;;5014161;28;20400;-66
2022/08/07 01:11:07;;;;;;;3.42;2.90;;;24.70;62.40;;;;;;5014026;28;20415;-66
2022/08/07 01:13:33;;;;;;;3.40;3.00;;;24.70;62.30;;;;;;5012562;28;20893;-66
2022/08/07 01:16:01;;;;;;;2.92;2.67;;;24.70;62.30;;;;;;5013824;28;20401;-67
2022/08/07 01:18:28;;;;;;;3.38;2.90;;;24.70;62.30;;;;;;4996438;28;20545;-66
2022/08/07 01:21:14;;;;;;;3.60;2.88;;;24.70;62.30;;;;;;5013935;28;20397;-66
2022/08/07 01:23:42;;;;;;;3.00;2.70;;;24.70;62.40;;;;;;4995958;28;20915;-66
2022/08/07 01:26:09;;;;;;;3.33;3.03;;;24.70;62.30;;;;;;5013853;28;20397;-66
2022/08/07 01:28:36;;;;;;;3.58;3.28;;;24.70;62.40;;;;;;5013751;28;20400;-66
2022/08/07 01:31:03;;;;;;;3.30;3.00;;;24.70;62.40;;;;;;5012439;28;20397;-66
2022/08/07 01:33:29;;;;;;;3.40;3.10;;;24.70;62.30;;;;;;5013678;28;20881;-66
2022/08/07 01:35:59;;;;;;;2.95;2.72;;;24.70;62.40;;;;;;5013257;28;20411;-67
2022/08/07 01:38:25;;;;;;;3.42;3.13;;;24.70;62.40;;;;;;5013619;28;20436;-66
2022/08/07 01:40:53;;;;;;;3.15;2.85;;;24.70;62.30;;;;;;5013587;28;20381;-66
2022/08/07 01:43:19;;;;;;;3.25;2.88;;;24.70;62.40;;;;;;5013523;28;20384;-66
2022/08/07 01:45:46;;;;;;;3.45;3.00;;;24.70;62.40;;;;;;5012953;28;20420;-66
2022/08/07 01:48:12;;;;;;;3.20;2.90;;;24.70;62.40;;;;;;5013426;28;20741;-66
2022/08/07 01:50:39;;;;;;;3.10;2.80;;;24.70;62.30;;;;;;5013391;28;20393;-67
2022/08/07 01:53:06;;;;;;;3.33;3.03;;;24.70;62.30;;;;;;5013354;28;20384;-66
2022/08/07 01:55:41;;;;;;;3.10;2.80;;;24.70;62.40;;;;;;5013003;28;20425;-66
2022/08/07 01:58:09;;;;;;;3.22;2.92;;;24.70;62.30;;;;;;5013231;28;20790;-66
2022/08/07 02:00:36;;;;;;;3.10;2.80;;;24.70;62.30;;;;;;5013158;28;20432;-66
2022/08/07 02:03:10;;;;;;;3.35;2.97;;;24.70;62.30;;;;;;5011542;28;20393;-66
2022/08/07 02:05:41;;;;;;;2.95;2.75;;;24.70;62.30;;;;;;5012704;28;20389;-66
2022/08/07 02:08:11;;;;;;;3.60;3.08;;;24.70;62.30;;;;;;5011363;28;20393;-66
2022/08/07 02:10:39;;;;;;;4.05;3.22;;;24.70;62.40;;;;;;5013017;28;20401;-66
2022/08/07 02:13:05;;;;;;;3.50;3.10;;;24.70;62.40;;;;;;5012919;28;20425;-66
2022/08/07 02:15:32;;;;;;;3.35;2.97;;;24.70;62.30;;;;;;5012594;28;20479;-67
2022/08/07 02:18:00;;;;;;;3.13;2.83;;;24.70;62.30;;;;;;5010897;28;20927;-66
2022/08/07 02:20:27;;;;;;;3.77;3.20;;;24.70;62.30;;;;;;5012510;28;20484;-66
2022/08/07 02:22:56;;;;;;;3.30;3.00;;;24.70;62.30;;;;;;5011586;28;20443;-66
2022/08/07 02:25:24;;;;;;;3.33;3.03;;;24.70;62.30;;;;;;5012787;28;20407;-66
2022/08/07 02:27:50;;;;;;;3.08;2.88;;;24.60;62.30;;;;;;5012338;28;20420;-66
2022/08/07 02:30:17;;;;;;;3.50;3.20;;;24.60;62.20;;;;;;5012713;28;20392;-67
2022/08/07 02:32:43;;;;;;;3.40;3.03;;;24.60;62.30;;;;;;5012622;28;20976;-66
2022/08/07 02:35:10;;;;;;;3.25;2.95;;;24.60;62.20;;;;;;5011238;28;20416;-66
2022/08/07 02:37:39;;;;;;;3.40;3.00;;;24.60;62.20;;;;;;5012169;28;20475;-66
2022/08/07 02:40:07;;;;;;;3.22;2.95;;;24.70;62.30;;;;;;5012443;28;20396;-67
2022/08/07 02:42:34;;;;;;;3.33;3.03;;;24.60;62.20;;;;;;5012443;28;20388;-66
2022/08/07 02:45:03;;;;;;;3.50;3.20;;;24.60;62.20;;;;;;5012365;28;20397;-67
2022/08/07 02:47:29;;;;;;;3.10;2.80;;;24.60;62.20;;;;;;5012203;28;20757;-66
2022/08/07 02:49:55;;;;;;;3.28;2.97;;;24.60;62.10;;;;;;5011788;28;20397;-66
2022/08/07 02:52:27;;;;;;;3.40;3.10;;;24.60;62.20;;;;;;5012289;28;20925;-66
2022/08/07 02:54:54;;;;;;;3.30;3.00;;;24.60;62.10;;;;;;5012116;28;20466;-66
2022/08/07 02:57:22;;;;;;;3.33;2.92;;;24.60;62.10;;;;;;5010534;28;20903;-66
2022/08/07 02:59:50;;;;;;;3.43;3.13;;;24.60;62.10;;;;;;5011596;28;20469;-66
2022/08/07 03:02:16;;;;;;;3.47;3.17;;;24.60;62.20;;;;;;4994140;28;20396;-67
2022/08/07 03:04:45;;;;;;;3.15;2.85;;;24.60;62.10;;;;;;5011640;28;20417;-66
2022/08/07 03:07:11;;;;;;;3.47;3.17;;;24.60;62.10;;;;;;5011927;28;20385;-66
2022/08/07 03:09:36;;;;;;;3.00;2.80;;;24.60;62.10;;;;;;5010471;28;20436;-66
2022/08/07 03:12:04;;;;;;;3.13;2.92;;;24.60;62.10;;;;;;5011410;28;20417;-67
2022/08/07 03:14:31;;;;;;;3.30;3.00;;;24.60;62.10;;;;;;5011812;28;20504;-66
2022/08/07 03:16:58;;;;;;;2.93;2.73;;;24.60;62.10;;;;;;5011880;28;20423;-66
2022/08/07 03:19:24;;;;;;;3.10;2.80;;;24.60;62.10;;;;;;5011123;28;20393;-67
2022/08/07 03:21:51;;;;;;;3.20;2.90;;;24.60;62.10;;;;;;5011294;28;20400;-66
2022/08/07 03:24:17;;;;;;;3.33;2.67;;;24.60;62.10;;;;;;5011816;28;20479;-66
2022/08/07 03:26:44;;;;;;;3.53;2.60;;;24.60;62.10;;;;;;4994185;28;20537;-66
2022/08/07 03:29:12;;;;;;;2.80;2.60;;;24.60;62.00;;;;;;5011859;28;20488;-67
2022/08/07 03:31:40;;;;;;;3.10;2.65;;;24.60;62.10;;;;;;5011673;28;20400;-66
2022/08/07 03:34:08;;;;;;;3.00;2.70;;;24.60;62.00;;;;;;4993987;28;20448;-66
2022/08/07 03:36:36;;;;;;;3.03;2.70;;;24.60;62.00;;;;;;4993509;28;20466;-67
2022/08/07 03:39:06;;;;;;;3.10;2.80;;;24.60;62.00;;;;;;5011700;28;20438;-66
2022/08/07 03:41:32;;;;;;;2.83;2.60;;;24.60;62.00;;;;;;5011764;28;20415;-66
2022/08/07 03:43:58;;;;;;;2.85;2.65;;;24.60;62.00;;;;;;4993576;28;20422;-66
2022/08/07 03:46:25;;;;;;;3.08;2.70;;;24.60;62.00;;;;;;5011659;28;20385;-66
2022/08/07 03:48:51;;;;;;;2.70;2.50;;;24.60;62.00;;;;;;4994002;28;20492;-66
2022/08/07 03:51:19;;;;;;;2.90;2.70;;;24.60;62.00;;;;;;5011558;28;20385;-66
2022/08/07 03:53:44;;;;;;;2.90;2.60;;;24.60;62.00;;;;;;5009748;28;20399;-66
2022/08/07 03:56:11;;;;;;;2.90;2.60;;;24.60;61.90;;;;;;4993880;28;20389;-66
2022/08/07 03:58:37;;;;;;;3.00;2.70;;;24.60;61.90;;;;;;4993706;28;20924;-66
2022/08/07 04:01:04;;;;;;;3.20;2.90;;;24.60;61.90;;;;;;5011433;28;20492;-67
2022/08/07 04:03:31;;;;;;;3.13;2.83;;;24.60;61.90;;;;;;5011312;28;20392;-66
2022/08/07 04:05:56;;;;;;;2.75;2.55;;;24.60;61.80;;;;;;5010729;28;20404;-66
2022/08/07 04:08:23;;;;;;;3.22;2.88;;;24.60;61.80;;;;;;5011185;28;20389;-66
2022/08/07 04:10:50;;;;;;;3.13;2.83;;;24.60;61.80;;;;;;5011415;28;20870;-66
2022/08/07 04:13:17;;;;;;;3.28;2.97;;;24.60;61.70;;;;;;5011466;28;20480;-66
2022/08/07 04:15:43;;;;;;;2.80;2.50;;;24.60;61.80;;;;;;5010910;28;20417;-66
2022/08/07 04:18:14;;;;;;;2.90;2.40;;;24.60;61.70;;;;;;5011326;28;20385;-66
2022/08/07 04:20:41;;;;;;;3.10;2.80;;;24.60;61.80;;;;;;5011390;28;20393;-66
2022/08/07 04:23:08;;;;;;;2.92;2.63;;;24.60;61.70;;;;;;5011207;28;20749;-66
2022/08/07 04:25:37;;;;;;;3.00;2.80;;;24.60;61.80;;;;;;5011379;28;20420;-66
2022/08/07 04:28:09;;;;;;;2.90;2.60;;;24.50;61.70;;;;;;5011003;28;20487;-66
2022/08/07 04:30:35;;;;;;;3.30;2.90;;;24.50;61.70;;;;;;5013295;28;20464;-67
2022/08/07 04:33:06;;;;;;;3.05;2.75;;;24.50;61.70;;;;;;5014868;28;20458;-66
2022/08/07 04:35:31;;;;;;;2.47;2.28;;;24.60;61.70;;;;;;5014772;28;20432;-66
2022/08/07 04:37:57;;;;;;;2.87;2.67;;;24.50;61.70;;;;;;5014159;28;20408;-66
2022/08/07 04:40:23;;;;;;;2.80;2.60;;;24.50;61.70;;;;;;5014775;28;20893;-66
2022/08/07 04:42:48;;;;;;;2.90;2.70;;;24.50;61.60;;;;;;5014708;28;20393;-67
2022/08/07 04:45:14;;;;;;;2.83;2.60;;;24.60;61.60;;;;;;5014693;28;20749;-66
2022/08/07 04:48:06;;;;;;;3.10;2.80;;;24.50;61.60;;;;;;5014426;28;20400;-66
2022/08/07 04:50:43;;;;;;;3.00;2.63;;;24.60;61.60;;;;;;5014582;28;20877;-66
2022/08/07 04:53:33;;;;;;;3.03;2.73;;;24.50;61.60;;;;;;5014337;28;20490;-66
2022/08/07 04:56:09;;;;;;;3.30;3.00;;;24.50;61.60;;;;;;5014013;28;20404;-67
2022/08/07 04:58:50;;;;;;;3.17;2.88;;;24.50;61.50;;;;;;5014361;28;20417;-66
2022/08/07 05:01:19;;;;;;;3.10;2.80;;;24.50;61.50;;;;;;5014386;28;20393;-66
2022/08/07 05:03:52;;;;;;;3.33;3.03;;;24.50;61.60;;;;;;5014033;28;20888;-67
2022/08/07 05:06:40;;;;;;;3.00;2.80;;;24.50;61.50;;;;;;5014153;28;20948;-67
2022/08/07 05:09:28;;;;;;;2.83;2.63;;;24.50;61.50;;;;;;5013965;28;20443;-66
2022/08/07 05:11:54;;;;;;;3.00;2.80;;;24.50;61.60;;;;;;5013660;28;20397;-66
2022/08/07 05:14:40;;;;;;;3.17;2.87;;;24.50;61.60;;;;;;5014088;28;20563;-66
2022/08/07 05:17:08;;;;;;;3.00;2.70;;;24.50;61.60;;;;;;5014029;28;20385;-66
2022/08/07 05:19:39;;;;;;;2.80;2.60;;;24.50;61.60;;;;;;5013971;28;20393;-67
2022/08/07 05:22:07;;;;;;;3.03;2.75;;;24.50;61.70;;;;;;5012216;28;20397;-66
2022/08/07 05:24:34;;;;;;;4.38;3.20;;;24.50;61.70;;;;;;4996244;28;20397;-66
2022/08/07 05:27:01;;;;;;;4.25;2.95;;;24.50;61.70;;;;;;5013858;28;20938;-67
2022/08/07 05:29:29;;;;;;;3.63;3.17;;;24.50;61.80;;;;;;5013718;28;20885;-67
2022/08/07 05:31:56;;;;;;;5.78;3.03;;;24.60;61.90;;;;;;5013277;28;20388;-67
2022/08/07 05:34:23;;;;;;;5.50;3.38;;;24.60;62.10;;;;;;4996030;28;20416;-66
2022/08/07 05:36:54;;;;;;;5.10;3.65;;;24.60;62.20;;;;;;5013338;28;20412;-67
2022/08/07 05:39:22;;;;;;;6.50;3.00;;;24.60;63.60;;;;;;5013700;28;20528;-67
2022/08/07 05:41:49;;;;;;;5.63;3.10;;;24.70;63.40;;;;;;5011228;28;20400;-68
2022/08/07 05:44:17;;;;;;;7.00;2.90;;;24.70;63.20;;;;;;5013519;28;20439;-67
2022/08/07 05:46:44;;;;;;;5.25;3.03;;;24.80;63.20;;;;;;5013422;28;20468;-68
2022/08/07 05:49:10;;;;;;;4.38;2.85;;;24.80;63.10;;;;;;5013539;28;21063;-67
2022/08/07 05:51:37;;;;;;;4.60;3.42;;;24.80;62.60;;;;;;5013451;28;20397;-68
2022/08/07 05:54:03;;;;;;;4.72;3.30;;;24.70;63.00;;;;;;5012818;28;21253;-67
2022/08/07 05:56:30;;;;;;;6.22;3.30;;;24.70;63.10;;;;;;5013371;28;20455;-68
2022/08/07 05:58:58;;;;;;;4.38;3.30;;;24.70;63.20;;;;;;5013166;28;20420;-67
2022/08/07 06:01:26;;;;;;;4.90;3.28;;;24.70;63.30;;;;;;5013206;28;20401;-67
2022/08/07 06:03:54;;;;;;;3.72;3.28;;;24.70;63.20;;;;;;5012589;28;20456;-72
2022/08/07 06:06:20;;;;;;;5.60;3.25;;;24.60;63.00;;;;;;5013141;28;20412;-69
2022/08/07 06:08:46;;;;;;;3.55;3.15;;;24.70;63.20;;;;;;5013064;28;20397;-69
2022/08/07 06:11:12;;;;;;;4.30;3.08;;;24.70;62.80;;;;;;5013017;28;20395;-67
2022/08/07 06:13:39;;;;;;;5.30;3.20;;;24.60;63.40;;;;;;5012916;28;20397;-68
2022/08/07 06:16:06;;;;;;;4.55;2.90;;;24.70;63.20;;;;;;5012410;28;20873;-67
2022/08/07 06:18:32;;;;;;;3.97;2.97;;;24.60;62.90;;;;;;5012940;28;20772;-69
2022/08/07 06:21:03;;;;;;;3.67;3.30;;;24.60;62.90;;;;;;5012737;28;20396;-67
2022/08/07 06:23:30;;;;;;;3.30;3.00;;;24.60;62.80;;;;;;5012835;28;20438;-67
2022/08/07 06:25:57;;;;;;;4.10;3.10;;;24.60;62.70;;;;;;5012177;28;20476;-67
2022/08/07 06:28:23;;;;;;;4.50;2.80;;;24.60;62.80;;;;;;5005408;28;20456;-69
2022/08/07 06:30:49;;;;;;;3.65;3.35;;;24.60;62.40;;;;;;5008058;28;20497;-68
2022/08/07 06:33:15;;;;;;;4.25;3.20;;;24.60;62.50;;;;;;5000496;28;20509;-68
2022/08/07 06:35:41;;;;;;;4.67;3.40;;;24.60;62.40;;;;;;5001502;28;20434;-68
2022/08/07 06:38:07;;;;;;;3.58;3.25;;;24.60;62.30;;;;;;4982819;28;20912;-67
2022/08/07 06:40:48;;;;;;;4.10;3.38;;;24.60;62.20;;;;;;5002383;28;20503;-69
2022/08/07 06:43:16;;;;;;;3.65;3.28;;;24.60;62.20;;;;;;4984839;28;20488;-67
2022/08/07 06:45:41;;;;;;;4.45;3.22;;;24.60;62.20;;;;;;4983417;28;20446;-70
2022/08/07 06:48:07;;;;;;;3.90;3.50;;;24.60;62.10;;;;;;5000464;28;20428;-72
2022/08/07 06:50:35;;;;;;;4.65;3.60;;;24.60;62.10;;;;;;5001933;28;20393;-67
2022/08/07 06:53:03;;;;;;;5.67;4.10;;;24.60;62.10;;;;;;5000529;28;20437;-71
2022/08/07 06:55:30;;;;;;;4.05;3.50;;;24.60;62.20;;;;;;4983085;28;20417;-67
2022/08/07 06:57:59;;;;;;;3.85;3.10;;;24.60;62.00;;;;;;5002141;28;20398;-68
2022/08/07 07:00:35;;;;;;;3.25;2.95;;;24.60;62.20;;;;;;5001053;28;20454;-67
2022/08/07 07:03:02;;;;;;;4.30;3.10;;;24.60;62.10;;;;;;5002312;28;20488;-66
2022/08/07 07:05:28;;;;;;;4.28;3.30;;;24.60;62.50;;;;;;5001464;28;20449;-66
2022/08/07 07:07:54;;;;;;;3.53;3.22;;;24.60;62.40;;;;;;4999412;28;20394;-66
2022/08/07 07:10:32;;;;;;;4.10;3.10;;;24.60;62.50;;;;;;4985238;28;20439;-67
2022/08/07 07:13:18;;;;;;;4.03;3.10;;;24.60;62.00;;;;;;5001780;28;20769;-66
2022/08/07 07:15:46;;;;;;;5.15;3.38;;;24.60;62.50;;;;;;5001521;28;20543;-67
2022/08/07 07:18:24;;;;;;;6.72;4.70;;;24.60;62.00;;;;;;5001500;28;20425;-70
2022/08/07 07:20:57;;;;;;;5.65;4.20;;;24.60;61.60;;;;;;5001448;28;20428;-68
2022/08/07 07:23:25;;;;;;;5.82;4.10;;;24.60;61.70;;;;;;5001813;28;20380;-72
2022/08/07 07:25:55;;;;;;;6.40;4.50;;;24.60;61.40;;;;;;5001353;28;20412;-68
2022/08/07 07:28:30;;;;;;;4.88;3.90;;;24.50;61.20;;;;;;5001616;28;20423;-69
2022/08/07 07:31:00;;;;;;;6.53;4.20;;;24.50;61.10;;;;;;5001574;28;20393;-68
2022/08/07 07:33:29;;;;;;;6.10;4.55;;;24.50;61.00;;;;;;5000733;28;20398;-67
2022/08/07 07:35:56;;;;;;;4.88;4.38;;;24.50;60.80;;;;;;4998712;28;20440;-67
2022/08/07 07:38:24;;;;;;;5.65;5.00;;;24.50;60.70;;;;;;5000923;28;20401;-67
2022/08/07 07:40:53;;;;;;;7.53;4.75;;;24.50;60.80;;;;;;5001304;28;20461;-67
2022/08/07 07:43:21;;;;;;;5.93;4.43;;;24.50;60.70;;;;;;5001564;28;20400;-67
2022/08/07 07:45:49;;;;;;;6.43;4.90;;;24.40;60.70;;;;;;4999395;28;20429;-67
2022/08/07 07:48:20;;;;;;;5.28;4.43;;;24.40;60.60;;;;;;5001618;28;20396;-68
2022/08/07 07:50:49;;;;;;;5.35;4.32;;;24.40;60.60;;;;;;5000430;28;20399;-69
2022/08/07 07:53:19;;;;;;;5.30;4.40;;;24.40;60.70;;;;;;4999425;28;20402;-68
2022/08/07 07:55:45;;;;;;;4.40;3.75;;;24.40;60.70;;;;;;5000186;28;20474;-67
2022/08/07 07:58:12;;;;;;;5.23;3.93;;;24.40;58.80;;;;;;4983172;28;20390;-69
2022/08/07 08:00:39;;;;;;;6.13;4.30;;;24.40;60.00;;;;;;5000672;28;20823;-68
2022/08/07 08:03:09;;;;;;;5.25;4.40;;;24.40;61.00;;;;;;4999067;28;20492;-65
2022/08/07 08:05:40;;;;;;;7.00;4.57;;;24.40;60.40;;;;;;5003339;28;20427;-69
2022/08/07 08:08:10;;;;;;;6.20;4.05;;;24.40;60.60;;;;;;4986099;28;20397;-68
2022/08/07 08:10:37;;;;;;;6.30;4.00;;;24.40;60.60;;;;;;5004030;28;20999;-68
2022/08/07 08:13:04;;;;;;;7.55;4.00;;;24.40;60.70;;;;;;5002219;28;20457;-68
2022/08/07 08:15:35;;;;;;;7.20;3.95;;;24.40;60.80;;;;;;5000421;28;20842;-68
2022/08/07 08:18:02;;;;;;;5.43;3.67;;;24.40;60.80;;;;;;4993426;28;20450;-68
2022/08/07 08:20:31;;;;;;;4.70;3.78;;;24.40;60.80;;;;;;5002371;28;20397;-68
2022/08/07 08:28:31;;;;;;;5.07;3.83;;;24.40;61.00;;;;;;5004941;28;20404;-70
2022/08/07 08:30:59;;;;;;;4.90;3.72;;;24.40;61.00;;;;;;4986920;28;20411;-68
2022/08/07 08:33:30;;;;;;;5.80;4.00;;;24.40;61.00;;;;;;5003702;28;20929;-68
2022/08/07 08:35:57;;;;;;;4.57;3.70;;;24.40;61.00;;;;;;5004474;28;20955;-67
2022/08/07 08:38:26;;;;;;;5.22;3.67;;;24.40;61.10;;;;;;5003251;28;20405;-68
2022/08/07 08:41:13;;;;;;;5.30;4.10;;;24.40;61.00;;;;;;5002547;28;20406;-68
2022/08/07 08:44:13;;;;;;;5.57;3.75;;;24.40;61.00;;;;;;5004561;28;20393;-68
2022/08/07 08:47:05;;;;;;;4.28;3.88;;;24.40;61.10;;;;;;5002743;28;20385;-68
2022/08/07 08:50:01;;;;;;;4.18;3.78;;;24.40;61.10;;;;;;5014652;28;20392;-68
2022/08/07 08:52:37;;;;;;;4.40;3.60;;;24.40;61.10;;;;;;5010486;28;20881;-68
2022/08/07 08:55:12;;;;;;;4.07;3.58;;;24.40;61.10;;;;;;5014242;28;20797;-67
2022/08/07 08:57:47;;;;;;;4.13;3.72;;;24.40;61.20;;;;;;5014271;28;20397;-68
2022/08/07 09:00:15;;;;;;;4.35;3.25;;;24.40;61.10;;;;;;5013848;28;20400;-67
2022/08/07 09:03:06;;;;;;;4.28;3.50;;;24.40;61.20;;;;;;5014174;28;20439;-71
2022/08/07 09:05:57;;;;;;;3.72;3.20;;;24.40;61.50;;;;;;5012949;28;20407;-67
2022/08/07 09:08:29;;;;;;;4.15;3.20;;;24.40;61.30;;;;;;5012577;28;20867;-68
2022/08/07 09:11:13;;;;;;;5.80;4.05;;;24.40;61.30;;;;;;5014085;28;20381;-67
2022/08/07 09:13:53;;;;;;;7.28;3.70;;;24.50;63.80;;;;;;5014859;28;20400;-67
2022/08/07 09:16:48;;;;;;;5.07;3.75;;;24.50;63.10;;;;;;5012675;28;20586;-68
2022/08/07 09:19:26;;;;;;;6.82;3.40;;;24.60;62.80;;;;;;5014012;28;20484;-67
2022/08/07 09:22:05;;;;;;;4.17;3.70;;;24.60;62.60;;;;;;4996150;28;20889;-67
2022/08/07 09:25:12;;;;;;;4.57;3.80;;;24.60;62.40;;;;;;4994295;28;20395;-67
2022/08/07 09:27:54;;;;;;;4.30;3.30;;;24.60;62.20;;;;;;4994058;28;20382;-67
2022/08/07 09:30:23;;;;;;;4.80;3.20;;;24.60;62.40;;;;;;4992616;28;20413;-67
2022/08/07 09:33:03;;;;;;;5.00;3.43;;;24.70;62.30;;;;;;4994133;28;20418;-69
2022/08/07 09:35:50;;;;;;;5.10;3.38;;;24.70;62.30;;;;;;4993979;28;20418;-67
2022/08/07 09:38:45;;;;;;;4.57;3.28;;;24.70;62.40;;;;;;4993550;28;20403;-68
2022/08/07 09:41:58;;;;;;;6.45;3.50;;;24.70;62.40;;;;;;4924509;28;20443;-68
2022/08/07 09:44:26;;;;;;;7.78;3.20;;;24.70;62.50;;;;;;4976401;28;20990;-68
2022/08/07 09:47:20;;;;;;;4.20;3.53;;;24.70;62.40;;;;;;4992613;28;20406;-68
2022/08/07 09:49:58;;;;;;;3.92;3.13;;;24.70;62.50;;;;;;4993853;28;20490;-67
2022/08/07 09:52:30;;;;;;;4.72;3.50;;;24.70;62.50;;;;;;4993627;28;20394;-67
2022/08/07 09:55:17;;;;;;;6.07;3.20;;;24.70;62.70;;;;;;4993723;28;20430;-68
2022/08/07 09:58:10;;;;;;;6.80;3.50;;;24.70;62.70;;;;;;4993462;28;20818;-67
2022/08/07 10:01:15;;;;;;;6.22;3.75;;;24.70;62.80;;;;;;4993504;28;20406;-68
2022/08/07 10:04:02;;;;;;;9.95;4.05;;;24.70;62.50;;;;;;4914288;29;20409;-67
2022/08/07 10:06:38;;;;;;;9.18;4.18;;;24.70;64.20;;;;;;4902243;29;20417;-68
2022/08/07 10:09:19;;;;;;;58.80;15.63;;;24.70;63.50;;;;;;4968111;28;20944;-68
2022/08/07 10:12:17;;;;;;;91.00;20.33;;;24.80;66.00;;;;;;4975934;28;20883;-68
2022/08/07 10:15:08;;;;;;;148.85;37.10;;;24.90;66.40;;;;;;4975834;28;20421;-68
2022/08/07 10:17:38;;;;;;;150.02;34.90;;;24.90;65.80;;;;;;4975782;28;20929;-66
2022/08/07 10:20:38;;;;;;;126.22;44.58;;;24.90;66.00;;;;;;4975034;28;20457;-68
2022/08/07 10:23:29;;;;;;;160.05;59.72;;;24.90;65.10;;;;;;4993890;28;20442;-69
2022/08/07 10:26:04;;;;;;;143.93;74.65;;;25.00;64.60;;;;;;4993273;28;20395;-66
2022/08/07 10:29:11;;;;;;;70.80;36.33;;;25.00;64.00;;;;;;4999941;28;20463;-72
2022/08/07 10:31:57;;;;;;;45.10;22.00;;;25.00;63.20;;;;;;4976452;28;20413;-67
2022/08/07 10:34:51;;;;;;;38.58;17.15;;;25.00;63.20;;;;;;4996027;28;20450;-67
2022/08/07 10:37:38;;;;;;;27.38;13.98;;;25.00;63.10;;;;;;4986586;28;20446;-69
2022/08/07 10:40:18;;;;;;;21.37;9.63;;;25.10;62.30;;;;;;5001701;28;20883;-66
2022/08/07 10:43:08;;;;;;;19.45;8.52;;;25.10;61.60;;;;;;4999266;28;20395;-70
2022/08/07 10:45:41;;;;;;;11.45;7.05;;;25.10;61.10;;;;;;5000925;28;20497;-66
2022/08/07 10:48:47;;;;;;;11.88;6.53;;;25.10;60.90;;;;;;5001962;28;20480;-67
2022/08/07 10:51:38;;;;;;;10.85;6.15;;;25.00;61.00;;;;;;5000636;28;20426;-66
2022/08/07 10:54:13;;;;;;;9.15;5.40;;;25.10;60.80;;;;;;5000178;28;20531;-66
2022/08/07 10:56:39;;;;;;;12.40;4.90;;;25.00;61.20;;;;;;5002743;28;20765;-68
2022/08/07 10:59:36;;;;;;;7.22;4.50;;;25.00;60.60;;;;;;4985285;28;20669;-72
2022/08/07 11:02:29;;;;;;;7.07;4.63;;;25.00;60.70;;;;;;5002516;28;20861;-67
2022/08/07 11:05:18;;;;;;;7.13;4.45;;;25.00;60.50;;;;;;5001776;28;20393;-64
2022/08/07 11:07:54;;;;;;;6.70;4.30;;;25.00;60.20;;;;;;5011214;28;20397;-65
2022/08/07 11:10:41;;;;;;;6.90;4.50;;;25.00;60.00;;;;;;5011283;28;20389;-64
2022/08/07 11:13:24;;;;;;;5.13;3.90;;;25.00;60.00;;;;;;5011361;28;20447;-65
2022/08/07 11:15:54;;;;;;;5.57;4.18;;;25.00;59.90;;;;;;4993930;28;20428;-69
2022/08/07 11:18:36;;;;;;;6.28;4.28;;;25.00;59.80;;;;;;5011307;28;20792;-65
2022/08/07 11:21:16;;;;;;;5.60;3.90;;;24.90;59.70;;;;;;5014478;28;20416;-69
2022/08/07 11:23:56;;;;;;;5.45;3.90;;;24.90;59.30;;;;;;5012522;28;20395;-65
2022/08/07 11:27:01;;;;;;;4.78;3.85;;;24.90;59.30;;;;;;4994809;28;20408;-67
2022/08/07 11:29:46;;;;;;;3.92;3.53;;;24.90;59.20;;;;;;5009141;28;20757;-66
2022/08/07 11:32:29;;;;;;;5.38;3.83;;;24.90;59.00;;;;;;5010947;28;20932;-66
2022/08/07 11:35:08;;;;;;;4.10;3.70;;;24.90;59.10;;;;;;5006048;28;20434;-68
2022/08/07 11:37:55;;;;;;;4.88;4.15;;;24.90;59.10;;;;;;5009672;28;20466;-66
2022/08/07 11:40:27;;;;;;;5.55;3.60;;;24.90;59.30;;;;;;5011057;28;20407;-65
2022/08/07 11:42:57;;;;;;;5.82;3.80;;;24.90;59.10;;;;;;5009448;28;20407;-65
2022/08/07 11:45:41;;;;;;;5.68;4.00;;;24.90;59.40;;;;;;5011813;28;20432;-66
2022/08/07 11:48:23;;;;;;;7.47;4.30;;;24.90;59.40;;;;;;5011371;28;20392;-65
2022/08/07 11:51:25;;;;;;;9.90;5.03;;;24.90;59.20;;;;;;5009733;28;20397;-64
2022/08/07 11:53:59;;;;;;;11.93;5.00;;;24.90;59.30;;;;;;5000201;28;20402;-66
2022/08/07 11:56:59;;;;;;;11.10;5.38;;;24.90;59.20;;;;;;4993287;28;20487;-65
2022/08/07 11:59:37;;;;;;;9.55;5.63;;;24.90;59.30;;;;;;5007620;28;20393;-68
2022/08/07 12:02:11;;;;;;;14.97;5.13;;;25.00;59.70;;;;;;4991673;28;20399;-66
2022/08/07 12:04:56;;;;;;;8.18;5.30;;;25.00;59.80;;;;;;4999257;28;20813;-67
2022/08/07 12:07:28;;;;;;;10.77;5.40;;;25.00;60.10;;;;;;5009556;28;20400;-68
2022/08/07 12:10:18;;;;;;;10.98;5.35;;;25.00;60.30;;;;;;4995256;28;20401;-70
2022/08/07 12:13:01;;;;;;;12.45;5.15;;;25.10;60.30;;;;;;4995323;28;20423;-65
2022/08/07 12:15:33;;;;;;;15.15;5.40;;;25.10;60.20;;;;;;5009250;28;20425;-66
2022/08/07 12:18:20;;;;;;;12.13;4.80;;;25.20;60.20;;;;;;5015124;28;20404;-69
2022/08/07 12:20:50;;;;;;;12.43;4.90;;;25.20;60.10;;;;;;5011086;28;20404;-65
2022/08/07 12:23:48;;;;;;;11.95;4.80;;;25.30;60.00;;;;;;5009071;28;20397;-66
2022/08/07 12:26:44;;;;;;;12.07;5.00;;;25.30;59.90;;;;;;4972878;28;20393;-66
2022/08/07 12:29:38;;;;;;;10.40;4.80;;;25.30;59.90;;;;;;5007425;28;20397;-66
2022/08/07 12:32:10;;;;;;;8.50;4.68;;;25.30;59.90;;;;;;5006338;28;20408;-66
2022/08/07 12:34:40;;;;;;;10.10;4.65;;;25.40;60.00;;;;;;4996602;28;20424;-67
2022/08/07 12:37:09;;;;;;;11.43;4.50;;;25.40;60.10;;;;;;4994567;28;20423;-71
2022/08/07 12:39:38;;;;;;;8.93;4.53;;;25.40;60.30;;;;;;4996488;28;20397;-71
2022/08/07 12:42:05;;;;;;;11.73;4.90;;;25.50;60.40;;;;;;5012904;28;20869;-72
2022/08/07 12:44:33;;;;;;;10.90;5.00;;;25.50;61.10;;;;;;4990747;28;20884;-67
2022/08/07 12:47:13;;;;;;;10.80;5.38;;;25.50;61.20;;;;;;5010724;28;20411;-69
2022/08/07 12:49:58;;;;;;;13.13;5.80;;;25.50;61.40;;;;;;4991018;28;20401;-66
2022/08/07 12:53:02;;;;;;;11.98;5.80;;;25.60;61.90;;;;;;5009253;28;20416;-67
2022/08/07 12:55:36;;;;;;;10.77;6.72;;;25.50;61.80;;;;;;5001862;28;20424;-68
2022/08/07 12:58:05;;;;;;;46.10;42.25;;;25.60;61.70;;;;;;5014064;28;20385;-71
2022/08/07 13:00:53;;;;;;;54.13;49.30;;;25.60;63.80;;;;;;5014120;28;20474;-70
2022/08/07 13:03:37;;;;;;;97.53;89.30;;;25.70;63.20;;;;;;5013842;28;20396;-66
2022/08/07 13:06:08;;;;;;;91.47;83.82;;;25.80;63.90;;;;;;5011244;28;20381;-62
2022/08/07 13:08:50;;;;;;;72.60;66.47;;;26.00;62.20;;;;;;5010794;28;20393;-68
2022/08/07 13:11:25;;;;;;;50.42;45.88;;;26.20;61.00;;;;;;5013311;28;20455;-64
2022/08/07 13:14:17;;;;;;;42.50;38.80;;;26.20;60.70;;;;;;4995015;28;20477;-65
2022/08/07 13:17:18;;;;;;;35.72;32.35;;;26.20;61.60;;;;;;4993316;28;20415;-66
2022/08/07 13:20:06;;;;;;;30.35;27.35;;;26.10;61.00;;;;;;4962081;28;20399;-66
2022/08/07 13:22:51;;;;;;;29.00;22.02;;;26.10;61.40;;;;;;4979643;28;20845;-69